sensor_id;sensor_type;location;lat;lon;timestamp;P1;durP1;ratioP1;P2;durP2;ratioP2
37973;SDS011;23796;51.458;7.000;2023-04-28T00:00:35;7.18;;;5.05;;
37973;SDS011;23796;51.458;7.000;2023-04-28T00:03:02;10.73;;;4.95;;
37973;SDS011;23796;51.458;7.000;2023-04-28T00:05:30;10.02;;;5.38;;
37973;SDS011;23796;51.458;7.000;2023-04-28T00:07:58;10.43;;;5.65;;
37973;SDS011;23796;51.458;7.000;2023-04-28T00:10:29;7.80;;;4.43;;
37973;SDS011;23796;51.458;7.000;2023-04-28T00:12:55;6.90;;;4.15;;
37973;SDS011;23796;51.458;7.000;2023-04-28T00:15:21;6.78;;;4.97;;
37973;SDS011;23796;51.458;7.000;2023-04-28T00:17:46;5.70;;;4.22;;
37973;SDS011;23796;51.458;7.000;2023-04-28T00:20:14;9.35;;;4.38;;
37973;SDS011;23796;51.458;7.000;2023-04-28T00:22:40;6.85;;;4.40;;
37973;SDS011;23796;51.458;7.000;2023-04-28T00:25:07;7.25;;;4.78;;
37973;SDS011;23796;51.458;7.000;2023-04-28T00:27:33;6.43;;;3.92;;
37973;SDS011;23796;51.458;7.000;2023-04-28T00:29:59;7.63;;;5.20;;
37973;SDS011;23796;51.458;7.000;2023-04-28T00:32:25;8.18;;;5.05;;
37973;SDS011;23796;51.458;7.000;2023-04-28T00:34:50;7.97;;;4.65;;
37973;SDS011;23796;51.458;7.000;2023-04-28T00:37:19;9.05;;;4.82;;
37973;SDS011;23796;51.458;7.000;2023-04-28T00:39:44;7.38;;;5.60;;
37973;SDS011;23796;51.458;7.000;2023-04-28T00:42:13;7.45;;;5.05;;
37973;SDS011;23796;51.458;7.000;2023-04-28T00:44:39;7.28;;;5.10;;
37973;SDS011;23796;51.458;7.000;2023-04-28T00:47:07;7.53;;;5.20;;
37973;SDS011;23796;51.458;7.000;2023-04-28T00:49:35;9.27;;;5.40;;
37973;SDS011;23796;51.458;7.000;2023-04-28T00:52:03;8.70;;;5.10;;
37973;SDS011;23796;51.458;7.000;2023-04-28T00:54:31;6.95;;;4.20;;
37973;SDS011;23796;51.458;7.000;2023-04-28T00:56:58;8.70;;;4.70;;
37973;SDS011;23796;51.458;7.000;2023-04-28T00:59:29;9.75;;;5.05;;
37973;SDS011;23796;51.458;7.000;2023-04-28T01:01:57;12.50;;;5.85;;
37973;SDS011;23796;51.458;7.000;2023-04-28T01:04:24;9.00;;;6.00;;
37973;SDS011;23796;51.458;7.000;2023-04-28T01:06:51;7.03;;;5.18;;
37973;SDS011;23796;51.458;7.000;2023-04-28T01:09:19;9.60;;;5.18;;
37973;SDS011;23796;51.458;7.000;2023-04-28T01:11:45;6.95;;;5.30;;
37973;SDS011;23796;51.458;7.000;2023-04-28T01:14:13;8.65;;;5.90;;
37973;SDS011;23796;51.458;7.000;2023-04-28T01:16:39;10.23;;;5.82;;
37973;SDS011;23796;51.458;7.000;2023-04-28T01:19:06;9.02;;;5.75;;
37973;SDS011;23796;51.458;7.000;2023-04-28T01:21:32;9.02;;;5.47;;
37973;SDS011;23796;51.458;7.000;2023-04-28T01:23:59;9.65;;;5.47;;
37973;SDS011;23796;51.458;7.000;2023-04-28T01:26:29;8.90;;;5.63;;
37973;SDS011;23796;51.458;7.000;2023-04-28T01:28:55;9.45;;;6.10;;
37973;SDS011;23796;51.458;7.000;2023-04-28T01:31:21;8.00;;;5.82;;
37973;SDS011;23796;51.458;7.000;2023-04-28T01:33:46;7.13;;;5.78;;
37973;SDS011;23796;51.458;7.000;2023-04-28T01:36:12;7.68;;;5.72;;
37973;SDS011;23796;51.458;7.000;2023-04-28T01:38:40;10.05;;;6.25;;
37973;SDS011;23796;51.458;7.000;2023-04-28T01:41:08;11.48;;;6.60;;
37973;SDS011;23796;51.458;7.000;2023-04-28T01:43:35;7.93;;;6.07;;
37973;SDS011;23796;51.458;7.000;2023-04-28T01:46:03;9.38;;;5.78;;
37973;SDS011;23796;51.458;7.000;2023-04-28T01:48:29;9.63;;;6.65;;
37973;SDS011;23796;51.458;7.000;2023-04-28T01:50:57;9.90;;;6.70;;
37973;SDS011;23796;51.458;7.000;2023-04-28T01:53:34;8.25;;;6.47;;
37973;SDS011;23796;51.458;7.000;2023-04-28T01:59:22;10.93;;;7.18;;
37973;SDS011;23796;51.458;7.000;2023-04-28T02:01:48;10.20;;;7.40;;
37973;SDS011;23796;51.458;7.000;2023-04-28T02:04:16;11.25;;;7.57;;
37973;SDS011;23796;51.458;7.000;2023-04-28T02:06:44;9.65;;;7.50;;
37973;SDS011;23796;51.458;7.000;2023-04-28T02:09:16;10.45;;;7.72;;
37973;SDS011;23796;51.458;7.000;2023-04-28T02:11:42;13.27;;;10.63;;
37973;SDS011;23796;51.458;7.000;2023-04-28T02:14:07;11.52;;;9.55;;
37973;SDS011;23796;51.458;7.000;2023-04-28T02:16:33;12.77;;;9.55;;
37973;SDS011;23796;51.458;7.000;2023-04-28T02:18:59;10.48;;;8.20;;
37973;SDS011;23796;51.458;7.000;2023-04-28T02:21:27;10.95;;;7.38;;
37973;SDS011;23796;51.458;7.000;2023-04-28T02:23:52;9.43;;;8.32;;
37973;SDS011;23796;51.458;7.000;2023-04-28T02:26:18;9.70;;;8.18;;
37973;SDS011;23796;51.458;7.000;2023-04-28T02:28:43;12.80;;;8.00;;
37973;SDS011;23796;51.458;7.000;2023-04-28T02:31:10;10.02;;;7.60;;
37973;SDS011;23796;51.458;7.000;2023-04-28T02:33:37;11.55;;;8.02;;
37973;SDS011;23796;51.458;7.000;2023-04-28T02:36:03;11.43;;;8.60;;
37973;SDS011;23796;51.458;7.000;2023-04-28T02:38:30;11.35;;;7.55;;
37973;SDS011;23796;51.458;7.000;2023-04-28T02:41:02;13.43;;;8.60;;
37973;SDS011;23796;51.458;7.000;2023-04-28T02:43:32;11.07;;;8.85;;
37973;SDS011;23796;51.458;7.000;2023-04-28T02:45:58;11.80;;;9.40;;
37973;SDS011;23796;51.458;7.000;2023-04-28T02:48:26;12.25;;;8.90;;
37973;SDS011;23796;51.458;7.000;2023-04-28T02:50:55;17.48;;;9.63;;
37973;SDS011;23796;51.458;7.000;2023-04-28T02:53:23;10.50;;;8.68;;
37973;SDS011;23796;51.458;7.000;2023-04-28T02:55:50;12.73;;;9.32;;
37973;SDS011;23796;51.458;7.000;2023-04-28T02:58:16;11.15;;;8.70;;
37973;SDS011;23796;51.458;7.000;2023-04-28T03:00:44;12.57;;;8.55;;
37973;SDS011;23796;51.458;7.000;2023-04-28T03:03:10;10.98;;;8.88;;
37973;SDS011;23796;51.458;7.000;2023-04-28T03:05:36;10.90;;;8.48;;
37973;SDS011;23796;51.458;7.000;2023-04-28T03:08:04;11.73;;;8.23;;
37973;SDS011;23796;51.458;7.000;2023-04-28T03:10:30;11.18;;;8.15;;
37973;SDS011;23796;51.458;7.000;2023-04-28T03:12:58;11.23;;;8.02;;
37973;SDS011;23796;51.458;7.000;2023-04-28T03:15:24;10.23;;;7.55;;
37973;SDS011;23796;51.458;7.000;2023-04-28T03:17:50;10.93;;;8.02;;
37973;SDS011;23796;51.458;7.000;2023-04-28T03:20:18;11.73;;;7.55;;
37973;SDS011;23796;51.458;7.000;2023-04-28T03:22:48;9.73;;;7.60;;
37973;SDS011;23796;51.458;7.000;2023-04-28T03:25:16;9.57;;;7.47;;
37973;SDS011;23796;51.458;7.000;2023-04-28T03:27:42;8.95;;;7.15;;
37973;SDS011;23796;51.458;7.000;2023-04-28T03:30:08;11.10;;;6.80;;
37973;SDS011;23796;51.458;7.000;2023-04-28T03:32:34;10.38;;;6.80;;
37973;SDS011;23796;51.458;7.000;2023-04-28T03:35:02;10.30;;;6.80;;
37973;SDS011;23796;51.458;7.000;2023-04-28T03:37:28;8.82;;;6.50;;
37973;SDS011;23796;51.458;7.000;2023-04-28T03:39:56;10.45;;;6.80;;
37973;SDS011;23796;51.458;7.000;2023-04-28T03:42:21;11.25;;;6.75;;
37973;SDS011;23796;51.458;7.000;2023-04-28T03:44:49;9.35;;;6.22;;
37973;SDS011;23796;51.458;7.000;2023-04-28T03:47:15;7.57;;;6.25;;
37973;SDS011;23796;51.458;7.000;2023-04-28T03:49:43;9.48;;;6.80;;
37973;SDS011;23796;51.458;7.000;2023-04-28T03:52:08;8.48;;;6.53;;
37973;SDS011;23796;51.458;7.000;2023-04-28T03:54:34;7.40;;;6.07;;
37973;SDS011;23796;51.458;7.000;2023-04-28T03:57:00;12.90;;;6.82;;
37973;SDS011;23796;51.458;7.000;2023-04-28T03:59:25;10.68;;;6.13;;
37973;SDS011;23796;51.458;7.000;2023-04-28T04:01:54;8.35;;;5.82;;
37973;SDS011;23796;51.458;7.000;2023-04-28T04:04:21;9.15;;;6.07;;
37973;SDS011;23796;51.458;7.000;2023-04-28T04:06:47;8.40;;;6.03;;
37973;SDS011;23796;51.458;7.000;2023-04-28T04:09:15;11.50;;;6.53;;
37973;SDS011;23796;51.458;7.000;2023-04-28T04:11:41;8.27;;;5.63;;
37973;SDS011;23796;51.458;7.000;2023-04-28T04:14:11;8.10;;;5.30;;
37973;SDS011;23796;51.458;7.000;2023-04-28T04:16:37;8.75;;;5.85;;
37973;SDS011;23796;51.458;7.000;2023-04-28T04:19:02;10.57;;;8.52;;
37973;SDS011;23796;51.458;7.000;2023-04-28T04:21:33;7.22;;;5.45;;
37973;SDS011;23796;51.458;7.000;2023-04-28T04:23:58;7.30;;;5.38;;
37973;SDS011;23796;51.458;7.000;2023-04-28T04:26:24;9.02;;;5.07;;
37973;SDS011;23796;51.458;7.000;2023-04-28T04:28:49;8.40;;;5.47;;
37973;SDS011;23796;51.458;7.000;2023-04-28T04:31:15;9.07;;;5.60;;
37973;SDS011;23796;51.458;7.000;2023-04-28T04:33:43;9.27;;;5.28;;
37973;SDS011;23796;51.458;7.000;2023-04-28T04:36:09;9.85;;;5.20;;
37973;SDS011;23796;51.458;7.000;2023-04-28T04:38:34;9.20;;;6.50;;
37973;SDS011;23796;51.458;7.000;2023-04-28T04:41:00;8.15;;;5.47;;
37973;SDS011;23796;51.458;7.000;2023-04-28T04:43:26;6.50;;;4.78;;
37973;SDS011;23796;51.458;7.000;2023-04-28T04:45:53;9.80;;;5.18;;
37973;SDS011;23796;51.458;7.000;2023-04-28T04:48:19;6.90;;;4.90;;
37973;SDS011;23796;51.458;7.000;2023-04-28T04:50:45;7.47;;;5.40;;
37973;SDS011;23796;51.458;7.000;2023-04-28T04:53:10;9.25;;;4.90;;
37973;SDS011;23796;51.458;7.000;2023-04-28T04:55:36;9.20;;;5.10;;
37973;SDS011;23796;51.458;7.000;2023-04-28T04:58:02;8.05;;;5.43;;
37973;SDS011;23796;51.458;7.000;2023-04-28T05:00:28;8.20;;;5.18;;
37973;SDS011;23796;51.458;7.000;2023-04-28T05:02:53;6.88;;;4.80;;
37973;SDS011;23796;51.458;7.000;2023-04-28T05:05:19;9.00;;;5.53;;
37973;SDS011;23796;51.458;7.000;2023-04-28T05:07:47;8.20;;;4.85;;
37973;SDS011;23796;51.458;7.000;2023-04-28T05:10:12;7.57;;;4.78;;
37973;SDS011;23796;51.458;7.000;2023-04-28T05:12:38;9.27;;;5.65;;
37973;SDS011;23796;51.458;7.000;2023-04-28T05:15:04;9.10;;;4.95;;
37973;SDS011;23796;51.458;7.000;2023-04-28T05:17:33;8.05;;;5.40;;
37973;SDS011;23796;51.458;7.000;2023-04-28T05:19:59;7.25;;;4.35;;
37973;SDS011;23796;51.458;7.000;2023-04-28T05:22:29;11.13;;;6.18;;
37973;SDS011;23796;51.458;7.000;2023-04-28T05:24:55;9.05;;;5.57;;
37973;SDS011;23796;51.458;7.000;2023-04-28T05:27:21;8.10;;;4.82;;
37973;SDS011;23796;51.458;7.000;2023-04-28T05:29:48;7.63;;;5.40;;
37973;SDS011;23796;51.458;7.000;2023-04-28T05:32:14;9.88;;;5.63;;
37973;SDS011;23796;51.458;7.000;2023-04-28T05:34:40;10.02;;;7.07;;
37973;SDS011;23796;51.458;7.000;2023-04-28T05:37:05;7.38;;;5.45;;
37973;SDS011;23796;51.458;7.000;2023-04-28T05:39:31;8.15;;;5.18;;
37973;SDS011;23796;51.458;7.000;2023-04-28T05:41:56;9.35;;;4.97;;
37973;SDS011;23796;51.458;7.000;2023-04-28T05:44:25;7.93;;;5.57;;
37973;SDS011;23796;51.458;7.000;2023-04-28T05:46:50;7.88;;;5.20;;
37973;SDS011;23796;51.458;7.000;2023-04-28T05:49:16;8.90;;;5.47;;
37973;SDS011;23796;51.458;7.000;2023-04-28T05:51:44;7.00;;;5.05;;
37973;SDS011;23796;51.458;7.000;2023-04-28T05:54:10;8.85;;;6.88;;
37973;SDS011;23796;51.458;7.000;2023-04-28T05:56:35;7.80;;;5.28;;
37973;SDS011;23796;51.458;7.000;2023-04-28T05:59:01;7.78;;;5.15;;
37973;SDS011;23796;51.458;7.000;2023-04-28T06:01:51;9.25;;;5.50;;
37973;SDS011;23796;51.458;7.000;2023-04-28T06:04:43;6.28;;;4.75;;
37973;SDS011;23796;51.458;7.000;2023-04-28T06:07:34;7.50;;;4.18;;
37973;SDS011;23796;51.458;7.000;2023-04-28T06:13:31;17.75;;;14.23;;
37973;SDS011;23796;51.458;7.000;2023-04-28T06:19:05;7.85;;;4.60;;
37973;SDS011;23796;51.458;7.000;2023-04-28T06:31:51;7.57;;;5.53;;
37973;SDS011;23796;51.458;7.000;2023-04-28T06:34:21;5.82;;;4.30;;
37973;SDS011;23796;51.458;7.000;2023-04-28T06:36:54;6.97;;;5.25;;
37973;SDS011;23796;51.458;7.000;2023-04-28T06:39:25;7.03;;;4.88;;
37973;SDS011;23796;51.458;7.000;2023-04-28T06:45:12;7.60;;;5.18;;
37973;SDS011;23796;51.458;7.000;2023-04-28T06:47:38;7.72;;;5.00;;
37973;SDS011;23796;51.458;7.000;2023-04-28T06:50:05;8.13;;;5.18;;
37973;SDS011;23796;51.458;7.000;2023-04-28T06:52:31;6.68;;;4.88;;
37973;SDS011;23796;51.458;7.000;2023-04-28T06:54:59;9.38;;;5.07;;
37973;SDS011;23796;51.458;7.000;2023-04-28T06:57:30;8.38;;;5.07;;
37973;SDS011;23796;51.458;7.000;2023-04-28T06:59:55;7.22;;;4.90;;
37973;SDS011;23796;51.458;7.000;2023-04-28T07:02:21;9.82;;;5.57;;
37973;SDS011;23796;51.458;7.000;2023-04-28T07:04:46;7.55;;;4.63;;
37973;SDS011;23796;51.458;7.000;2023-04-28T07:07:14;6.47;;;4.45;;
37973;SDS011;23796;51.458;7.000;2023-04-28T07:09:40;8.35;;;5.47;;
37973;SDS011;23796;51.458;7.000;2023-04-28T07:12:08;7.60;;;5.20;;
37973;SDS011;23796;51.458;7.000;2023-04-28T07:14:33;8.80;;;5.13;;
37973;SDS011;23796;51.458;7.000;2023-04-28T07:17:04;7.20;;;4.75;;
37973;SDS011;23796;51.458;7.000;2023-04-28T07:19:29;10.65;;;5.25;;
37973;SDS011;23796;51.458;7.000;2023-04-28T07:21:57;6.57;;;4.32;;
37973;SDS011;23796;51.458;7.000;2023-04-28T07:24:23;8.98;;;5.03;;
37973;SDS011;23796;51.458;7.000;2023-04-28T07:26:49;8.77;;;4.45;;
37973;SDS011;23796;51.458;7.000;2023-04-28T07:29:15;8.25;;;4.78;;
37973;SDS011;23796;51.458;7.000;2023-04-28T07:31:43;8.80;;;5.97;;
37973;SDS011;23796;51.458;7.000;2023-04-28T07:34:08;8.60;;;5.40;;
37973;SDS011;23796;51.458;7.000;2023-04-28T07:36:34;7.95;;;4.88;;
37973;SDS011;23796;51.458;7.000;2023-04-28T07:39:00;6.95;;;5.45;;
37973;SDS011;23796;51.458;7.000;2023-04-28T07:41:26;6.10;;;4.30;;
37973;SDS011;23796;51.458;7.000;2023-04-28T07:43:54;6.38;;;4.28;;
37973;SDS011;23796;51.458;7.000;2023-04-28T07:46:19;6.63;;;4.20;;
37973;SDS011;23796;51.458;7.000;2023-04-28T07:48:46;8.30;;;3.65;;
37973;SDS011;23796;51.458;7.000;2023-04-28T07:51:11;5.82;;;3.88;;
37973;SDS011;23796;51.458;7.000;2023-04-28T07:53:37;6.95;;;3.95;;
37973;SDS011;23796;51.458;7.000;2023-04-28T07:56:03;6.20;;;3.70;;
37973;SDS011;23796;51.458;7.000;2023-04-28T07:58:28;7.80;;;4.78;;
37973;SDS011;23796;51.458;7.000;2023-04-28T08:00:55;6.47;;;4.15;;
37973;SDS011;23796;51.458;7.000;2023-04-28T08:03:20;5.75;;;3.90;;
37973;SDS011;23796;51.458;7.000;2023-04-28T08:05:46;7.05;;;4.00;;
37973;SDS011;23796;51.458;7.000;2023-04-28T08:08:12;7.20;;;4.35;;
37973;SDS011;23796;51.458;7.000;2023-04-28T08:10:37;6.85;;;3.83;;
37973;SDS011;23796;51.458;7.000;2023-04-28T08:13:06;6.70;;;4.07;;
37973;SDS011;23796;51.458;7.000;2023-04-28T08:15:31;6.68;;;4.15;;
37973;SDS011;23796;51.458;7.000;2023-04-28T08:17:57;9.65;;;3.92;;
37973;SDS011;23796;51.458;7.000;2023-04-28T08:20:23;7.55;;;4.32;;
37973;SDS011;23796;51.458;7.000;2023-04-28T08:22:48;6.80;;;5.10;;
37973;SDS011;23796;51.458;7.000;2023-04-28T08:25:14;5.97;;;3.75;;
37973;SDS011;23796;51.458;7.000;2023-04-28T08:27:42;7.70;;;4.07;;
37973;SDS011;23796;51.458;7.000;2023-04-28T08:30:08;7.38;;;4.20;;
37973;SDS011;23796;51.458;7.000;2023-04-28T08:32:34;6.45;;;4.30;;
37973;SDS011;23796;51.458;7.000;2023-04-28T08:35:00;5.57;;;3.72;;
37973;SDS011;23796;51.458;7.000;2023-04-28T08:37:26;6.10;;;4.13;;
37973;SDS011;23796;51.458;7.000;2023-04-28T08:39:51;9.02;;;4.13;;
37973;SDS011;23796;51.458;7.000;2023-04-28T08:42:27;6.93;;;4.05;;
37973;SDS011;23796;51.458;7.000;2023-04-28T08:44:54;5.28;;;3.85;;
37973;SDS011;23796;51.458;7.000;2023-04-28T08:47:23;5.97;;;4.30;;
37973;SDS011;23796;51.458;7.000;2023-04-28T08:50:05;9.27;;;4.50;;
37973;SDS011;23796;51.458;7.000;2023-04-28T08:52:32;6.22;;;4.43;;
37973;SDS011;23796;51.458;7.000;2023-04-28T08:54:59;8.70;;;4.38;;
37973;SDS011;23796;51.458;7.000;2023-04-28T08:57:29;7.65;;;4.85;;
37973;SDS011;23796;51.458;7.000;2023-04-28T09:00:01;7.45;;;4.45;;
37973;SDS011;23796;51.458;7.000;2023-04-28T09:02:27;6.45;;;4.28;;
37973;SDS011;23796;51.458;7.000;2023-04-28T09:04:53;6.28;;;4.13;;
37973;SDS011;23796;51.458;7.000;2023-04-28T09:07:21;6.38;;;4.25;;
37973;SDS011;23796;51.458;7.000;2023-04-28T09:09:53;7.13;;;4.07;;
37973;SDS011;23796;51.458;7.000;2023-04-28T09:12:49;6.85;;;4.20;;
37973;SDS011;23796;51.458;7.000;2023-04-28T09:15:25;4.65;;;4.03;;
37973;SDS011;23796;51.458;7.000;2023-04-28T09:17:54;6.38;;;4.47;;
37973;SDS011;23796;51.458;7.000;2023-04-28T09:20:20;8.00;;;4.10;;
37973;SDS011;23796;51.458;7.000;2023-04-28T09:22:46;7.85;;;5.88;;
37973;SDS011;23796;51.458;7.000;2023-04-28T09:25:18;6.80;;;4.53;;
37973;SDS011;23796;51.458;7.000;2023-04-28T09:27:46;8.43;;;4.90;;
37973;SDS011;23796;51.458;7.000;2023-04-28T09:30:12;6.03;;;4.10;;
37973;SDS011;23796;51.458;7.000;2023-04-28T09:32:37;6.90;;;4.55;;
37973;SDS011;23796;51.458;7.000;2023-04-28T09:35:05;6.95;;;4.38;;
37973;SDS011;23796;51.458;7.000;2023-04-28T09:37:31;6.78;;;4.05;;
37973;SDS011;23796;51.458;7.000;2023-04-28T09:40:05;6.95;;;4.45;;
37973;SDS011;23796;51.458;7.000;2023-04-28T09:42:36;8.80;;;4.13;;
37973;SDS011;23796;51.458;7.000;2023-04-28T09:45:05;7.38;;;3.97;;
37973;SDS011;23796;51.458;7.000;2023-04-28T09:47:33;8.13;;;4.32;;
37973;SDS011;23796;51.458;7.000;2023-04-28T09:50:04;6.13;;;3.78;;
37973;SDS011;23796;51.458;7.000;2023-04-28T09:52:33;7.85;;;4.30;;
37973;SDS011;23796;51.458;7.000;2023-04-28T09:55:00;6.05;;;4.30;;
37973;SDS011;23796;51.458;7.000;2023-04-28T09:57:29;6.03;;;4.38;;
37973;SDS011;23796;51.458;7.000;2023-04-28T09:59:58;9.32;;;5.03;;
37973;SDS011;23796;51.458;7.000;2023-04-28T10:02:25;7.35;;;5.05;;
37973;SDS011;23796;51.458;7.000;2023-04-28T10:04:51;8.48;;;5.07;;
37973;SDS011;23796;51.458;7.000;2023-04-28T10:07:20;8.20;;;5.72;;
37973;SDS011;23796;51.458;7.000;2023-04-28T10:09:46;8.68;;;5.28;;
37973;SDS011;23796;51.458;7.000;2023-04-28T10:12:14;7.35;;;5.63;;
37973;SDS011;23796;51.458;7.000;2023-04-28T10:14:40;7.35;;;4.68;;
37973;SDS011;23796;51.458;7.000;2023-04-28T10:17:07;5.97;;;4.50;;
37973;SDS011;23796;51.458;7.000;2023-04-28T10:19:33;8.40;;;5.10;;
37973;SDS011;23796;51.458;7.000;2023-04-28T10:27:39;8.15;;;5.05;;
37973;SDS011;23796;51.458;7.000;2023-04-28T10:30:11;7.43;;;5.45;;
37973;SDS011;23796;51.458;7.000;2023-04-28T10:32:41;8.02;;;5.63;;
37973;SDS011;23796;51.458;7.000;2023-04-28T10:38:04;7.63;;;4.60;;
37973;SDS011;23796;51.458;7.000;2023-04-28T10:42:55;5.90;;;4.00;;
37973;SDS011;23796;51.458;7.000;2023-04-28T10:56:11;6.93;;;5.00;;
37973;SDS011;23796;51.458;7.000;2023-04-28T10:59:00;6.95;;;5.57;;
37973;SDS011;23796;51.458;7.000;2023-04-28T11:01:51;18.05;;;16.20;;
37973;SDS011;23796;51.458;7.000;2023-04-28T11:04:16;8.02;;;5.82;;
37973;SDS011;23796;51.458;7.000;2023-04-28T11:06:43;7.93;;;6.28;;
37973;SDS011;23796;51.458;7.000;2023-04-28T11:17:02;9.57;;;7.00;;
37973;SDS011;23796;51.458;7.000;2023-04-28T11:19:30;7.32;;;6.35;;
37973;SDS011;23796;51.458;7.000;2023-04-28T11:22:03;9.15;;;6.28;;
37973;SDS011;23796;51.458;7.000;2023-04-28T11:24:38;7.05;;;6.35;;
37973;SDS011;23796;51.458;7.000;2023-04-28T11:27:03;9.27;;;6.80;;
37973;SDS011;23796;51.458;7.000;2023-04-28T11:29:30;8.27;;;6.28;;
37973;SDS011;23796;51.458;7.000;2023-04-28T11:32:06;7.57;;;6.70;;
37973;SDS011;23796;51.458;7.000;2023-04-28T11:34:33;9.73;;;6.57;;
37973;SDS011;23796;51.458;7.000;2023-04-28T11:37:02;9.88;;;6.80;;
37973;SDS011;23796;51.458;7.000;2023-04-28T11:39:30;8.52;;;6.65;;
37973;SDS011;23796;51.458;7.000;2023-04-28T11:41:59;7.45;;;6.53;;
37973;SDS011;23796;51.458;7.000;2023-04-28T11:44:27;10.70;;;7.20;;
37973;SDS011;23796;51.458;7.000;2023-04-28T11:46:54;8.80;;;7.90;;
37973;SDS011;23796;51.458;7.000;2023-04-28T11:49:24;9.15;;;7.60;;
37973;SDS011;23796;51.458;7.000;2023-04-28T11:51:54;8.63;;;7.75;;
37973;SDS011;23796;51.458;7.000;2023-04-28T11:54:30;9.30;;;6.53;;
37973;SDS011;23796;51.458;7.000;2023-04-28T11:56:57;8.48;;;7.05;;
37973;SDS011;23796;51.458;7.000;2023-04-28T11:59:28;10.00;;;7.60;;
37973;SDS011;23796;51.458;7.000;2023-04-28T12:01:58;7.68;;;6.88;;
37973;SDS011;23796;51.458;7.000;2023-04-28T12:07:12;9.48;;;6.88;;
37973;SDS011;23796;51.458;7.000;2023-04-28T12:12:34;9.77;;;6.43;;
37973;SDS011;23796;51.458;7.000;2023-04-28T12:15:00;8.18;;;6.38;;
37973;SDS011;23796;51.458;7.000;2023-04-28T12:17:35;8.57;;;7.45;;
37973;SDS011;23796;51.458;7.000;2023-04-28T12:20:04;7.85;;;7.10;;
37973;SDS011;23796;51.458;7.000;2023-04-28T12:22:42;7.38;;;6.68;;
37973;SDS011;23796;51.458;7.000;2023-04-28T12:25:14;9.02;;;8.13;;
37973;SDS011;23796;51.458;7.000;2023-04-28T12:27:57;9.75;;;8.75;;
37973;SDS011;23796;51.458;7.000;2023-04-28T12:30:29;10.18;;;9.07;;
37973;SDS011;23796;51.458;7.000;2023-04-28T12:32:58;10.00;;;9.10;;
37973;SDS011;23796;51.458;7.000;2023-04-28T12:35:24;9.55;;;8.63;;
37973;SDS011;23796;51.458;7.000;2023-04-28T12:37:53;9.73;;;8.82;;
37973;SDS011;23796;51.458;7.000;2023-04-28T12:40:20;12.00;;;10.82;;
37973;SDS011;23796;51.458;7.000;2023-04-28T12:42:46;10.65;;;9.50;;
37973;SDS011;23796;51.458;7.000;2023-04-28T12:45:18;11.32;;;10.15;;
37973;SDS011;23796;51.458;7.000;2023-04-28T12:47:44;11.77;;;10.65;;
37973;SDS011;23796;51.458;7.000;2023-04-28T12:50:10;11.05;;;10.02;;
37973;SDS011;23796;51.458;7.000;2023-04-28T12:52:36;9.93;;;9.00;;
37973;SDS011;23796;51.458;7.000;2023-04-28T12:55:04;9.90;;;8.95;;
37973;SDS011;23796;51.458;7.000;2023-04-28T12:57:30;9.70;;;8.90;;
37973;SDS011;23796;51.458;7.000;2023-04-28T12:59:56;9.30;;;8.40;;
37973;SDS011;23796;51.458;7.000;2023-04-28T13:02:24;8.32;;;7.53;;
37973;SDS011;23796;51.458;7.000;2023-04-28T13:04:52;8.60;;;7.78;;
37973;SDS011;23796;51.458;7.000;2023-04-28T13:07:17;7.85;;;7.15;;
37973;SDS011;23796;51.458;7.000;2023-04-28T13:09:43;6.10;;;5.47;;
37973;SDS011;23796;51.458;7.000;2023-04-28T13:12:09;9.10;;;7.63;;
37973;SDS011;23796;51.458;7.000;2023-04-28T13:14:37;7.88;;;6.68;;
37973;SDS011;23796;51.458;7.000;2023-04-28T13:17:05;7.10;;;6.40;;
37973;SDS011;23796;51.458;7.000;2023-04-28T13:19:32;10.23;;;9.18;;
37973;SDS011;23796;51.458;7.000;2023-04-28T13:22:00;7.53;;;6.72;;
37973;SDS011;23796;51.458;7.000;2023-04-28T13:24:28;9.18;;;7.72;;
37973;SDS011;23796;51.458;7.000;2023-04-28T13:26:54;7.78;;;6.97;;
37973;SDS011;23796;51.458;7.000;2023-04-28T13:29:20;6.97;;;6.28;;
37973;SDS011;23796;51.458;7.000;2023-04-28T13:31:46;7.75;;;7.05;;
37973;SDS011;23796;51.458;7.000;2023-04-28T13:34:14;8.20;;;7.40;;
37973;SDS011;23796;51.458;7.000;2023-04-28T13:36:41;8.23;;;7.53;;
37973;SDS011;23796;51.458;7.000;2023-04-28T13:39:12;8.05;;;7.25;;
37973;SDS011;23796;51.458;7.000;2023-04-28T13:41:41;7.30;;;6.65;;
37973;SDS011;23796;51.458;7.000;2023-04-28T13:44:07;9.02;;;7.18;;
37973;SDS011;23796;51.458;7.000;2023-04-28T13:46:33;7.85;;;7.05;;
37973;SDS011;23796;51.458;7.000;2023-04-28T13:48:59;7.55;;;6.85;;
37973;SDS011;23796;51.458;7.000;2023-04-28T13:51:24;7.53;;;6.82;;
37973;SDS011;23796;51.458;7.000;2023-04-28T13:53:50;7.22;;;6.53;;
37973;SDS011;23796;51.458;7.000;2023-04-28T13:56:18;7.07;;;6.25;;
37973;SDS011;23796;51.458;7.000;2023-04-28T13:58:46;6.20;;;5.60;;
37973;SDS011;23796;51.458;7.000;2023-04-28T14:01:11;6.38;;;5.60;;
37973;SDS011;23796;51.458;7.000;2023-04-28T14:03:37;6.80;;;6.10;;
37973;SDS011;23796;51.458;7.000;2023-04-28T14:06:06;7.75;;;6.97;;
37973;SDS011;23796;51.458;7.000;2023-04-28T14:08:34;7.25;;;6.55;;
37973;SDS011;23796;51.458;7.000;2023-04-28T14:11:02;8.10;;;7.30;;
37973;SDS011;23796;51.458;7.000;2023-04-28T14:13:28;7.50;;;6.45;;
37973;SDS011;23796;51.458;7.000;2023-04-28T14:15:54;7.45;;;5.85;;
37973;SDS011;23796;51.458;7.000;2023-04-28T14:18:21;6.38;;;5.40;;
37973;SDS011;23796;51.458;7.000;2023-04-28T14:20:47;6.88;;;5.65;;
37973;SDS011;23796;51.458;7.000;2023-04-28T14:23:13;6.18;;;5.13;;
37973;SDS011;23796;51.458;7.000;2023-04-28T14:25:39;8.10;;;5.40;;
37973;SDS011;23796;51.458;7.000;2023-04-28T14:28:05;6.25;;;5.43;;
37973;SDS011;23796;51.458;7.000;2023-04-28T14:30:31;6.40;;;5.28;;
37973;SDS011;23796;51.458;7.000;2023-04-28T14:32:56;7.88;;;5.13;;
37973;SDS011;23796;51.458;7.000;2023-04-28T14:35:23;7.18;;;4.78;;
37973;SDS011;23796;51.458;7.000;2023-04-28T14:37:51;6.40;;;4.25;;
37973;SDS011;23796;51.458;7.000;2023-04-28T14:40:18;5.15;;;4.65;;
37973;SDS011;23796;51.458;7.000;2023-04-28T14:42:44;7.50;;;4.97;;
37973;SDS011;23796;51.458;7.000;2023-04-28T14:45:11;6.30;;;5.10;;
37973;SDS011;23796;51.458;7.000;2023-04-28T14:47:37;6.57;;;4.75;;
37973;SDS011;23796;51.458;7.000;2023-04-28T14:50:04;6.57;;;4.72;;
37973;SDS011;23796;51.458;7.000;2023-04-28T14:52:32;7.00;;;4.82;;
37973;SDS011;23796;51.458;7.000;2023-04-28T14:55:00;5.22;;;4.50;;
37973;SDS011;23796;51.458;7.000;2023-04-28T14:57:27;5.57;;;4.50;;
37973;SDS011;23796;51.458;7.000;2023-04-28T14:59:53;5.15;;;3.30;;
37973;SDS011;23796;51.458;7.000;2023-04-28T15:02:19;5.93;;;3.83;;
37973;SDS011;23796;51.458;7.000;2023-04-28T15:04:55;4.90;;;3.75;;
37973;SDS011;23796;51.458;7.000;2023-04-28T15:07:22;4.10;;;3.10;;
37973;SDS011;23796;51.458;7.000;2023-04-28T15:09:58;6.18;;;4.88;;
37973;SDS011;23796;51.458;7.000;2023-04-28T15:12:24;4.25;;;3.30;;
37973;SDS011;23796;51.458;7.000;2023-04-28T15:14:50;4.95;;;3.22;;
37973;SDS011;23796;51.458;7.000;2023-04-28T15:17:18;4.65;;;3.15;;
37973;SDS011;23796;51.458;7.000;2023-04-28T15:19:45;3.60;;;2.20;;
37973;SDS011;23796;51.458;7.000;2023-04-28T15:22:11;3.30;;;1.92;;
37973;SDS011;23796;51.458;7.000;2023-04-28T15:24:36;3.47;;;1.90;;
37973;SDS011;23796;51.458;7.000;2023-04-28T15:27:05;5.30;;;2.42;;
37973;SDS011;23796;51.458;7.000;2023-04-28T15:29:30;3.83;;;2.13;;
37973;SDS011;23796;51.458;7.000;2023-04-28T15:31:56;5.95;;;2.55;;
37973;SDS011;23796;51.458;7.000;2023-04-28T15:34:22;5.07;;;3.70;;
37973;SDS011;23796;51.458;7.000;2023-04-28T15:36:49;7.72;;;7.03;;
37973;SDS011;23796;51.458;7.000;2023-04-28T15:39:18;9.65;;;7.03;;
37973;SDS011;23796;51.458;7.000;2023-04-28T15:41:44;6.57;;;5.57;;
37973;SDS011;23796;51.458;7.000;2023-04-28T15:44:10;7.82;;;5.82;;
37973;SDS011;23796;51.458;7.000;2023-04-28T15:46:35;6.50;;;5.68;;